Sakun'Ja, Russia
Current Conditions -  °F | °C
As of 6:30 PM on Saturday 20 Dec 2014 (Local Time) from UWKS Reporting Station
Light Snow Light Snow  
Wind Chill: 24°   Ceiling: 400
Heat Index: 34°   Visibility: 1.9mi
Dew Point: 32°   Wind: 13mph
Humidity: 93%   Direction: 200°SSW
Pressure: 29.44"   Gusts: NA
Location:  57.67°N, 46.63°E
Report Text: UWKS 201530Z 20006MPS 3100 -SNRA OVC004 01/00 Q0997 TEMPO 1500RASN OVC003 RMK QBB140 QFE734 24650340
Loading
Personal Weather Stations






























Interactive Weather Map New forecast layout! Learn more

10-Day Weather Forecast

Advertisements
Track Severe Weather on mobile